sensor_id;sensor_type;location;lat;lon;timestamp;pressure;altitude;pressure_sealevel;temperature;humidity
49297;BME280;35163;48.878;18.040;2022-10-14T00:01:07;98730.28;;;12.72;88.46
49297;BME280;35163;48.878;18.040;2022-10-14T00:03:35;98726.06;;;12.70;88.75
49297;BME280;35163;48.878;18.040;2022-10-14T00:06:11;98726.16;;;12.67;89.20
49297;BME280;35163;48.878;18.040;2022-10-14T00:08:39;98726.16;;;12.67;89.33
49297;BME280;35163;48.878;18.040;2022-10-14T00:11:11;98718.56;;;12.60;89.67
49297;BME280;35163;48.878;18.040;2022-10-14T00:13:38;98722.81;;;12.63;89.49
49297;BME280;35163;48.878;18.040;2022-10-14T00:16:11;98716.84;;;12.61;89.73
49297;BME280;35163;48.878;18.040;2022-10-14T00:18:40;98722.81;;;12.63;89.75
49297;BME280;35163;48.878;18.040;2022-10-14T00:21:07;98709.06;;;12.61;89.84
49297;BME280;35163;48.878;18.040;2022-10-14T00:23:34;98710.03;;;12.58;89.93
49297;BME280;35163;48.878;18.040;2022-10-14T00:26:00;98710.91;;;12.57;90.03
49297;BME280;35163;48.878;18.040;2022-10-14T00:28:27;98706.56;;;12.58;90.11
49297;BME280;35163;48.878;18.040;2022-10-14T00:30:55;98706.56;;;12.58;90.35
49297;BME280;35163;48.878;18.040;2022-10-14T00:33:23;98704.09;;;12.55;90.30
49297;BME280;35163;48.878;18.040;2022-10-14T00:35:58;98703.19;;;12.56;90.46
49297;BME280;35163;48.878;18.040;2022-10-14T00:38:26;98705.66;;;12.59;90.21
49297;BME280;35163;48.878;18.040;2022-10-14T00:40:54;98704.72;;;12.61;90.18
49297;BME280;35163;48.878;18.040;2022-10-14T00:43:22;98702.94;;;12.63;90.26
49297;BME280;35163;48.878;18.040;2022-10-14T00:45:50;98706.53;;;12.59;89.80
49297;BME280;35163;48.878;18.040;2022-10-14T00:48:18;98701.38;;;12.58;89.67
49297;BME280;35163;48.878;18.040;2022-10-14T00:50:48;98705.78;;;12.56;89.68
49297;BME280;35163;48.878;18.040;2022-10-14T00:53:16;98697.25;;;12.52;89.35
49297;BME280;35163;48.878;18.040;2022-10-14T00:55:43;98694.88;;;12.46;89.74
49297;BME280;35163;48.878;18.040;2022-10-14T00:58:10;98697.59;;;12.43;89.33
49297;BME280;35163;48.878;18.040;2022-10-14T01:00:37;98694.19;;;12.41;89.30
49297;BME280;35163;48.878;18.040;2022-10-14T01:03:23;98695.09;;;12.39;89.44
49297;BME280;35163;48.878;18.040;2022-10-14T01:06:13;98696.91;;;12.37;89.45
49297;BME280;35163;48.878;18.040;2022-10-14T01:14:23;98693.56;;;12.34;89.75
49297;BME280;35163;48.878;18.040;2022-10-14T01:17:05;98691.03;;;12.32;89.73
49297;BME280;35163;48.878;18.040;2022-10-14T01:25:12;98681.66;;;12.28;90.22
49297;BME280;35163;48.878;18.040;2022-10-14T01:30:33;98674.88;;;12.24;90.84
49297;BME280;35163;48.878;18.040;2022-10-14T01:33:10;98679.16;;;12.25;90.85
49297;BME280;35163;48.878;18.040;2022-10-14T01:38:32;98678.94;;;12.31;90.81
49297;BME280;35163;48.878;18.040;2022-10-14T01:43:28;98675.34;;;12.35;90.18
49297;BME280;35163;48.878;18.040;2022-10-14T01:45:59;98680.59;;;12.34;90.21
49297;BME280;35163;48.878;18.040;2022-10-14T01:48:31;98671.03;;;12.36;89.98
49297;BME280;35163;48.878;18.040;2022-10-14T01:51:00;98680.53;;;12.35;90.31
49297;BME280;35163;48.878;18.040;2022-10-14T01:53:33;98680.53;;;12.35;90.46
49297;BME280;35163;48.878;18.040;2022-10-14T01:56:03;98673.69;;;12.34;90.04
49297;BME280;35163;48.878;18.040;2022-10-14T01:58:33;98674.38;;;12.38;90.18
49297;BME280;35163;48.878;18.040;2022-10-14T02:01:05;98669.19;;;12.39;90.27
49297;BME280;35163;48.878;18.040;2022-10-14T02:03:43;98666.47;;;12.43;90.39
49297;BME280;35163;48.878;18.040;2022-10-14T02:06:16;98668.16;;;12.44;90.10
49297;BME280;35163;48.878;18.040;2022-10-14T02:11:40;98665.72;;;12.39;89.76
49297;BME280;35163;48.878;18.040;2022-10-14T02:14:47;98658.84;;;12.38;89.02
49297;BME280;35163;48.878;18.040;2022-10-14T02:17:28;98659.91;;;12.32;88.86
49297;BME280;35163;48.878;18.040;2022-10-14T02:20:04;98655.66;;;12.30;89.01
49297;BME280;35163;48.878;18.040;2022-10-14T02:22:40;98653.13;;;12.28;88.84
49297;BME280;35163;48.878;18.040;2022-10-14T02:25:11;98665.03;;;12.34;89.00
49297;BME280;35163;48.878;18.040;2022-10-14T02:27:41;98652.94;;;12.34;89.00
49297;BME280;35163;48.878;18.040;2022-10-14T02:30:10;98654.63;;;12.35;88.71
49297;BME280;35163;48.878;18.040;2022-10-14T02:32:37;98656.28;;;12.36;89.43
49297;BME280;35163;48.878;18.040;2022-10-14T02:35:06;98655.34;;;12.39;89.28
49297;BME280;35163;48.878;18.040;2022-10-14T02:37:36;98657.09;;;12.38;89.45
49297;BME280;35163;48.878;18.040;2022-10-14T02:40:09;98653.63;;;12.39;89.71
49297;BME280;35163;48.878;18.040;2022-10-14T02:42:37;98652.72;;;12.41;89.60
49297;BME280;35163;48.878;18.040;2022-10-14T02:45:04;98656.22;;;12.39;89.31
49297;BME280;35163;48.878;18.040;2022-10-14T02:47:32;98654.50;;;12.38;89.36
49297;BME280;35163;48.878;18.040;2022-10-14T02:49:58;98651.03;;;12.39;89.71
49297;BME280;35163;48.878;18.040;2022-10-14T02:52:25;98649.31;;;12.38;89.56
49297;BME280;35163;48.878;18.040;2022-10-14T02:54:52;98645.84;;;12.39;89.28
49297;BME280;35163;48.878;18.040;2022-10-14T02:57:18;98656.09;;;12.43;89.07
49297;BME280;35163;48.878;18.040;2022-10-14T02:59:45;98645.84;;;12.39;89.13
49297;BME280;35163;48.878;18.040;2022-10-14T03:02:11;98653.50;;;12.43;89.07
49297;BME280;35163;48.878;18.040;2022-10-14T03:04:38;98651.84;;;12.40;88.92
49297;BME280;35163;48.878;18.040;2022-10-14T03:07:05;98654.38;;;12.42;88.95
49297;BME280;35163;48.878;18.040;2022-10-14T03:09:31;98651.84;;;12.40;89.21
49297;BME280;35163;48.878;18.040;2022-10-14T03:11:58;98652.75;;;12.39;89.11
49297;BME280;35163;48.878;18.040;2022-10-14T03:14:24;98655.47;;;12.36;89.15
49297;BME280;35163;48.878;18.040;2022-10-14T03:16:51;98657.88;;;12.41;89.49
49297;BME280;35163;48.878;18.040;2022-10-14T03:19:18;98653.63;;;12.39;89.14
49297;BME280;35163;48.878;18.040;2022-10-14T03:21:44;98654.38;;;12.42;89.15
49297;BME280;35163;48.878;18.040;2022-10-14T03:24:11;98650.00;;;12.44;89.38
49297;BME280;35163;48.878;18.040;2022-10-14T03:26:37;98659.44;;;12.46;89.44
49297;BME280;35163;48.878;18.040;2022-10-14T03:29:04;98664.63;;;12.46;89.55
49297;BME280;35163;48.878;18.040;2022-10-14T03:31:31;98661.16;;;12.46;89.30
49297;BME280;35163;48.878;18.040;2022-10-14T03:33:57;98656.78;;;12.48;89.59
49297;BME280;35163;48.878;18.040;2022-10-14T03:36:24;98664.38;;;12.52;89.51
49297;BME280;35163;48.878;18.040;2022-10-14T03:38:50;98661.69;;;12.56;89.63
49297;BME280;35163;48.878;18.040;2022-10-14T03:41:17;98659.94;;;12.56;89.53
49297;BME280;35163;48.878;18.040;2022-10-14T03:43:43;98660.00;;;12.55;89.13
49297;BME280;35163;48.878;18.040;2022-10-14T03:46:10;98662.66;;;12.53;88.80
49297;BME280;35163;48.878;18.040;2022-10-14T03:48:36;98666.31;;;12.47;87.96
49297;BME280;35163;48.878;18.040;2022-10-14T03:51:03;98659.44;;;12.46;88.31
49297;BME280;35163;48.878;18.040;2022-10-14T03:53:30;98663.66;;;12.49;88.52
49297;BME280;35163;48.878;18.040;2022-10-14T03:55:56;98663.66;;;12.49;88.63
49297;BME280;35163;48.878;18.040;2022-10-14T03:58:23;98656.84;;;12.46;88.00
49297;BME280;35163;48.878;18.040;2022-10-14T04:00:49;98654.25;;;12.46;88.18
49297;BME280;35163;48.878;18.040;2022-10-14T04:03:16;98651.72;;;12.45;88.03
49297;BME280;35163;48.878;18.040;2022-10-14T04:05:43;98654.38;;;12.42;88.02
49297;BME280;35163;48.878;18.040;2022-10-14T04:08:09;98646.78;;;12.37;88.07
49297;BME280;35163;48.878;18.040;2022-10-14T04:10:36;98650.41;;;12.33;88.31
49297;BME280;35163;48.878;18.040;2022-10-14T04:13:03;98643.50;;;12.32;88.64
49297;BME280;35163;48.878;18.040;2022-10-14T04:15:29;98646.94;;;12.32;88.74
49297;BME280;35163;48.878;18.040;2022-10-14T04:17:56;98640.75;;;12.36;89.15
49297;BME280;35163;48.878;18.040;2022-10-14T04:20:23;98640.69;;;12.38;88.82
49297;BME280;35163;48.878;18.040;2022-10-14T04:22:49;98639.78;;;12.39;88.86
49297;BME280;35163;48.878;18.040;2022-10-14T04:25:16;98640.53;;;12.43;88.77
49297;BME280;35163;48.878;18.040;2022-10-14T04:27:42;98630.97;;;12.45;88.95
49297;BME280;35163;48.878;18.040;2022-10-14T04:30:09;98637.78;;;12.47;89.09
49297;BME280;35163;48.878;18.040;2022-10-14T04:32:36;98636.84;;;12.50;88.96
49297;BME280;35163;48.878;18.040;2022-10-14T04:35:03;98639.25;;;12.55;89.03
49297;BME280;35163;48.878;18.040;2022-10-14T04:37:30;98631.53;;;12.53;88.97
49297;BME280;35163;48.878;18.040;2022-10-14T04:39:57;98641.84;;;12.55;88.69
49297;BME280;35163;48.878;18.040;2022-10-14T04:42:23;98641.91;;;12.53;88.62
49297;BME280;35163;48.878;18.040;2022-10-14T04:44:50;98631.72;;;12.47;88.74
49297;BME280;35163;48.878;18.040;2022-10-14T04:47:17;98630.78;;;12.49;88.76
49297;BME280;35163;48.878;18.040;2022-10-14T04:49:44;98639.44;;;12.50;88.59
49297;BME280;35163;48.878;18.040;2022-10-14T04:52:10;98635.13;;;12.49;88.12
49297;BME280;35163;48.878;18.040;2022-10-14T04:54:37;98636.84;;;12.50;88.54
49297;BME280;35163;48.878;18.040;2022-10-14T04:57:03;98628.13;;;12.51;88.23
49297;BME280;35163;48.878;18.040;2022-10-14T04:59:30;98642.72;;;12.54;88.85
49297;BME280;35163;48.878;18.040;2022-10-14T05:01:56;98633.22;;;12.54;88.88
49297;BME280;35163;48.878;18.040;2022-10-14T05:04:23;98641.78;;;12.56;88.66
49297;BME280;35163;48.878;18.040;2022-10-14T05:06:50;98645.25;;;12.57;88.88
49297;BME280;35163;48.878;18.040;2022-10-14T05:09:16;98635.88;;;12.52;88.72
49297;BME280;35163;48.878;18.040;2022-10-14T05:11:43;98635.00;;;12.52;88.40
49297;BME280;35163;48.878;18.040;2022-10-14T05:14:09;98634.25;;;12.50;88.16
49297;BME280;35163;48.878;18.040;2022-10-14T05:16:36;98636.09;;;12.46;88.17
49297;BME280;35163;48.878;18.040;2022-10-14T05:19:03;98632.69;;;12.44;88.04
49297;BME280;35163;48.878;18.040;2022-10-14T05:21:29;98635.97;;;12.49;88.51
49297;BME280;35163;48.878;18.040;2022-10-14T05:23:56;98637.66;;;12.50;88.63
49297;BME280;35163;48.878;18.040;2022-10-14T05:26:22;98636.84;;;12.50;88.52
49297;BME280;35163;48.878;18.040;2022-10-14T05:28:52;98637.53;;;12.54;88.72
49297;BME280;35163;48.878;18.040;2022-10-14T05:31:19;98637.53;;;12.54;88.79
49297;BME280;35163;48.878;18.040;2022-10-14T05:33:46;98627.16;;;12.54;88.64
49297;BME280;35163;48.878;18.040;2022-10-14T05:36:12;98633.31;;;12.51;89.12
49297;BME280;35163;48.878;18.040;2022-10-14T05:38:39;98632.28;;;12.55;88.98
49297;BME280;35163;48.878;18.040;2022-10-14T05:41:05;98631.41;;;12.56;88.98
49297;BME280;35163;48.878;18.040;2022-10-14T05:43:32;98640.06;;;12.57;89.65
49297;BME280;35163;48.878;18.040;2022-10-14T05:45:59;98637.41;;;12.58;89.77
49297;BME280;35163;48.878;18.040;2022-10-14T05:48:26;98636.25;;;12.66;89.50
49297;BME280;35163;48.878;18.040;2022-10-14T05:50:52;98637.00;;;12.69;89.53
49297;BME280;35163;48.878;18.040;2022-10-14T05:53:19;98635.19;;;12.71;89.04
49297;BME280;35163;48.878;18.040;2022-10-14T05:55:45;98644.63;;;12.74;89.05
49297;BME280;35163;48.878;18.040;2022-10-14T05:58:12;98644.50;;;12.77;88.34
49297;BME280;35163;48.878;18.040;2022-10-14T06:00:38;98642.91;;;12.73;87.96
49297;BME280;35163;48.878;18.040;2022-10-14T06:03:05;98636.84;;;12.74;87.90
49297;BME280;35163;48.878;18.040;2022-10-14T06:05:34;98630.13;;;12.68;87.79
49297;BME280;35163;48.878;18.040;2022-10-14T06:08:02;98630.06;;;12.70;87.88
49297;BME280;35163;48.878;18.040;2022-10-14T06:10:28;98622.28;;;12.70;87.93
49297;BME280;35163;48.878;18.040;2022-10-14T06:12:55;98622.22;;;12.71;87.75
49297;BME280;35163;48.878;18.040;2022-10-14T06:15:22;98623.97;;;12.71;88.60
49297;BME280;35163;48.878;18.040;2022-10-14T06:17:48;98629.81;;;12.76;88.41
49297;BME280;35163;48.878;18.040;2022-10-14T06:20:15;98633.88;;;12.83;88.09
49297;BME280;35163;48.878;18.040;2022-10-14T06:22:41;98638.97;;;12.86;88.07
49297;BME280;35163;48.878;18.040;2022-10-14T06:25:08;98632.69;;;12.92;88.19
49297;BME280;35163;48.878;18.040;2022-10-14T06:27:35;98632.69;;;12.92;88.04
49297;BME280;35163;48.878;18.040;2022-10-14T06:30:01;98637.03;;;12.92;87.80
49297;BME280;35163;48.878;18.040;2022-10-14T06:32:28;98642.97;;;12.95;87.80
49297;BME280;35163;48.878;18.040;2022-10-14T06:34:54;98650.69;;;12.97;87.98
49297;BME280;35163;48.878;18.040;2022-10-14T06:37:22;98657.59;;;12.98;87.84
49297;BME280;35163;48.878;18.040;2022-10-14T06:39:48;98655.94;;;12.95;87.90
49297;BME280;35163;48.878;18.040;2022-10-14T06:42:15;98651.72;;;12.93;88.17
49297;BME280;35163;48.878;18.040;2022-10-14T06:44:42;98656.13;;;12.91;88.05
49297;BME280;35163;48.878;18.040;2022-10-14T06:47:08;98649.22;;;12.90;87.72
49297;BME280;35163;48.878;18.040;2022-10-14T06:49:35;98649.13;;;12.93;87.84
49297;BME280;35163;48.878;18.040;2022-10-14T06:52:01;98653.41;;;12.94;87.85
49297;BME280;35163;48.878;18.040;2022-10-14T06:54:28;98653.34;;;12.95;88.07
49297;BME280;35163;48.878;18.040;2022-10-14T06:56:55;98655.00;;;12.98;87.71
49297;BME280;35163;48.878;18.040;2022-10-14T06:59:21;98654.94;;;12.99;87.88
49297;BME280;35163;48.878;18.040;2022-10-14T07:01:48;98657.41;;;13.03;87.89
49297;BME280;35163;48.878;18.040;2022-10-14T07:04:14;98649.63;;;13.03;87.94
49297;BME280;35163;48.878;18.040;2022-10-14T07:06:41;98651.28;;;13.04;88.03
49297;BME280;35163;48.878;18.040;2022-10-14T07:09:07;98648.53;;;13.08;87.97
49297;BME280;35163;48.878;18.040;2022-10-14T07:11:34;98653.63;;;13.11;88.07
49297;BME280;35163;48.878;18.040;2022-10-14T07:14:01;98660.25;;;13.19;87.37
49297;BME280;35163;48.878;18.040;2022-10-14T07:16:27;98658.31;;;13.24;87.48
49297;BME280;35163;48.878;18.040;2022-10-14T07:18:54;98659.78;;;13.31;87.41
49297;BME280;35163;48.878;18.040;2022-10-14T07:21:21;98662.19;;;13.36;87.67
49297;BME280;35163;48.878;18.040;2022-10-14T07:23:47;98664.50;;;13.44;87.68
49297;BME280;35163;48.878;18.040;2022-10-14T07:26:14;98649.50;;;13.51;87.44
49297;BME280;35163;48.878;18.040;2022-10-14T07:28:40;98659.56;;;13.60;87.47
49297;BME280;35163;48.878;18.040;2022-10-14T07:31:09;98655.75;;;13.69;87.25
49297;BME280;35163;48.878;18.040;2022-10-14T07:33:37;98656.34;;;13.76;86.78
49297;BME280;35163;48.878;18.040;2022-10-14T07:36:07;98664.72;;;13.82;86.29
49297;BME280;35163;48.878;18.040;2022-10-14T07:38:35;98662.91;;;13.84;85.85
49297;BME280;35163;48.878;18.040;2022-10-14T07:41:05;98659.44;;;13.85;84.66
49297;BME280;35163;48.878;18.040;2022-10-14T07:43:33;98658.38;;;13.90;84.79
49297;BME280;35163;48.878;18.040;2022-10-14T07:46:04;98671.97;;;13.96;84.01
49297;BME280;35163;48.878;18.040;2022-10-14T07:48:34;98669.22;;;14.00;84.10
49297;BME280;35163;48.878;18.040;2022-10-14T07:51:20;98669.16;;;14.01;84.05
49297;BME280;35163;48.878;18.040;2022-10-14T07:53:47;98672.63;;;14.02;84.16
49297;BME280;35163;48.878;18.040;2022-10-14T07:56:14;98676.84;;;14.04;84.05
49297;BME280;35163;48.878;18.040;2022-10-14T07:58:40;98668.06;;;14.07;83.37
49297;BME280;35163;48.878;18.040;2022-10-14T08:01:09;98670.66;;;14.07;84.31
49297;BME280;35163;48.878;18.040;2022-10-14T08:03:36;98674.00;;;14.11;84.59
49297;BME280;35163;48.878;18.040;2022-10-14T08:06:04;98677.50;;;14.09;83.35
49297;BME280;35163;48.878;18.040;2022-10-14T08:08:31;98670.59;;;14.08;82.95
49297;BME280;35163;48.878;18.040;2022-10-14T08:11:24;98674.25;;;14.04;83.55
49297;BME280;35163;48.878;18.040;2022-10-14T08:13:49;98672.47;;;14.05;83.58
49297;BME280;35163;48.878;18.040;2022-10-14T08:16:21;98677.88;;;14.00;83.64
49297;BME280;35163;48.878;18.040;2022-10-14T08:18:49;98678.00;;;13.97;84.35
49297;BME280;35163;48.878;18.040;2022-10-14T08:21:17;98674.63;;;13.95;84.87
49297;BME280;35163;48.878;18.040;2022-10-14T08:23:44;98683.22;;;13.97;84.94
49297;BME280;35163;48.878;18.040;2022-10-14T08:26:34;98682.13;;;14.03;84.94
49297;BME280;35163;48.878;18.040;2022-10-14T08:29:04;98687.25;;;14.04;84.75
49297;BME280;35163;48.878;18.040;2022-10-14T08:31:31;98691.66;;;14.02;85.06
49297;BME280;35163;48.878;18.040;2022-10-14T08:33:58;98697.72;;;14.03;85.36
49297;BME280;35163;48.878;18.040;2022-10-14T08:36:25;98691.81;;;13.99;86.51
49297;BME280;35163;48.878;18.040;2022-10-14T08:38:53;98695.41;;;13.95;87.24
49297;BME280;35163;48.878;18.040;2022-10-14T08:44:19;98701.78;;;13.88;88.83
49297;BME280;35163;48.878;18.040;2022-10-14T08:46:54;98696.63;;;13.86;89.76
49297;BME280;35163;48.878;18.040;2022-10-14T08:49:33;98695.03;;;13.83;90.11
49297;BME280;35163;48.878;18.040;2022-10-14T08:52:10;98696.91;;;13.80;90.13
49297;BME280;35163;48.878;18.040;2022-10-14T08:54:42;98704.75;;;13.78;90.60
49297;BME280;35163;48.878;18.040;2022-10-14T08:57:19;98711.97;;;13.71;90.93
49297;BME280;35163;48.878;18.040;2022-10-14T08:59:46;98716.44;;;13.68;90.91
49297;BME280;35163;48.878;18.040;2022-10-14T09:04:39;98707.09;;;13.62;91.21
49297;BME280;35163;48.878;18.040;2022-10-14T09:07:06;98702.78;;;13.63;92.20
49297;BME280;35163;48.878;18.040;2022-10-14T09:09:44;98708.97;;;13.58;93.67
49297;BME280;35163;48.878;18.040;2022-10-14T09:12:14;98704.75;;;13.56;94.15
49297;BME280;35163;48.878;18.040;2022-10-14T09:14:50;98707.53;;;13.51;94.88
49297;BME280;35163;48.878;18.040;2022-10-14T09:17:26;98702.31;;;13.51;94.65
49297;BME280;35163;48.878;18.040;2022-10-14T09:20:21;98703.28;;;13.48;93.93
49297;BME280;35163;48.878;18.040;2022-10-14T09:25:33;98712.72;;;13.51;94.35
49297;BME280;35163;48.878;18.040;2022-10-14T09:28:00;98710.13;;;13.51;94.88
49297;BME280;35163;48.878;18.040;2022-10-14T09:30:28;98711.25;;;13.44;95.53
49297;BME280;35163;48.878;18.040;2022-10-14T09:32:56;98708.66;;;13.44;96.60
49297;BME280;35163;48.878;18.040;2022-10-14T09:35:34;98707.06;;;13.40;95.91
49297;BME280;35163;48.878;18.040;2022-10-14T09:38:01;98704.47;;;13.40;96.29
49297;BME280;35163;48.878;18.040;2022-10-14T09:40:36;98713.13;;;13.40;96.68
49297;BME280;35163;48.878;18.040;2022-10-14T09:45:59;98706.94;;;13.43;95.10
49297;BME280;35163;48.878;18.040;2022-10-14T09:48:37;98707.75;;;13.45;96.11
49297;BME280;35163;48.878;18.040;2022-10-14T09:51:09;98708.41;;;13.50;96.39
49297;BME280;35163;48.878;18.040;2022-10-14T09:53:44;98713.50;;;13.53;97.10
49297;BME280;35163;48.878;18.040;2022-10-14T09:56:13;98713.44;;;13.55;96.24
49297;BME280;35163;48.878;18.040;2022-10-14T09:58:48;98710.81;;;13.56;96.03
49297;BME280;35163;48.878;18.040;2022-10-14T10:01:22;98718.59;;;13.56;96.00
49297;BME280;35163;48.878;18.040;2022-10-14T10:03:51;98713.44;;;13.55;95.82
49297;BME280;35163;48.878;18.040;2022-10-14T10:06:25;98717.63;;;13.59;96.70
49297;BME280;35163;48.878;18.040;2022-10-14T10:11:33;98706.44;;;13.57;97.09
49297;BME280;35163;48.878;18.040;2022-10-14T10:19:35;98720.50;;;13.51;96.57
49297;BME280;35163;48.878;18.040;2022-10-14T10:22:26;98719.72;;;13.49;97.07
49297;BME280;35163;48.878;18.040;2022-10-14T10:27:52;98718.91;;;13.47;95.96
49297;BME280;35163;48.878;18.040;2022-10-14T10:30:28;98712.88;;;13.46;97.37
49297;BME280;35163;48.878;18.040;2022-10-14T10:35:58;98710.28;;;13.46;97.84
49297;BME280;35163;48.878;18.040;2022-10-14T10:38:52;98711.06;;;13.48;97.52
49297;BME280;35163;48.878;18.040;2022-10-14T10:47:27;98705.81;;;13.50;97.68
49297;BME280;35163;48.878;18.040;2022-10-14T10:50:10;98704.94;;;13.49;97.35
49297;BME280;35163;48.878;18.040;2022-10-14T10:52:59;98697.22;;;13.48;96.93
49297;BME280;35163;48.878;18.040;2022-10-14T10:55:45;98701.47;;;13.51;97.25
49297;BME280;35163;48.878;18.040;2022-10-14T11:09:45;98672.88;;;13.52;96.24
49297;BME280;35163;48.878;18.040;2022-10-14T11:17:54;98672.13;;;13.71;92.39
49297;BME280;35163;48.878;18.040;2022-10-14T11:20:31;98662.25;;;13.79;92.28
49297;BME280;35163;48.878;18.040;2022-10-14T11:23:13;98662.97;;;13.83;92.64
49297;BME280;35163;48.878;18.040;2022-10-14T11:26:20;98659.44;;;13.85;91.89
49297;BME280;35163;48.878;18.040;2022-10-14T11:31:52;98650.56;;;13.90;90.32
49297;BME280;35163;48.878;18.040;2022-10-14T11:34:57;98641.03;;;13.90;91.04
49297;BME280;35163;48.878;18.040;2022-10-14T11:37:46;98648.84;;;13.90;92.30
49297;BME280;35163;48.878;18.040;2022-10-14T11:40:19;98648.75;;;13.92;92.22
49297;BME280;35163;48.878;18.040;2022-10-14T11:48:31;98636.44;;;13.97;90.05
49297;BME280;35163;48.878;18.040;2022-10-14T11:51:19;98629.66;;;13.93;89.40
49297;BME280;35163;48.878;18.040;2022-10-14T11:53:58;98638.09;;;13.98;88.96
49297;BME280;35163;48.878;18.040;2022-10-14T11:56:47;98636.22;;;14.02;90.82
49297;BME280;35163;48.878;18.040;2022-10-14T12:05:10;98627.91;;;14.14;93.72
49297;BME280;35163;48.878;18.040;2022-10-14T12:07:49;98614.97;;;14.13;89.85
49297;BME280;35163;48.878;18.040;2022-10-14T12:10:28;98616.50;;;14.17;89.87
49297;BME280;35163;48.878;18.040;2022-10-14T12:12:58;98629.38;;;14.20;90.85
49297;BME280;35163;48.878;18.040;2022-10-14T12:15:27;98633.75;;;14.19;91.85
49297;BME280;35163;48.878;18.040;2022-10-14T12:17:59;98626.91;;;14.17;92.97
49297;BME280;35163;48.878;18.040;2022-10-14T12:20:48;98639.97;;;14.15;93.88
49297;BME280;35163;48.878;18.040;2022-10-14T12:26:01;98620.09;;;14.14;93.15
49297;BME280;35163;48.878;18.040;2022-10-14T12:28:29;98621.72;;;14.17;94.14
49297;BME280;35163;48.878;18.040;2022-10-14T12:31:19;98614.63;;;14.20;94.48
49297;BME280;35163;48.878;18.040;2022-10-14T12:36:41;98630.03;;;14.25;93.94
49297;BME280;35163;48.878;18.040;2022-10-14T12:41:54;98621.19;;;14.29;95.27
49297;BME280;35163;48.878;18.040;2022-10-14T12:44:23;98624.66;;;14.30;95.24
49297;BME280;35163;48.878;18.040;2022-10-14T12:46:52;98620.28;;;14.30;95.40
49297;BME280;35163;48.878;18.040;2022-10-14T12:49:30;98621.13;;;14.31;95.12
49297;BME280;35163;48.878;18.040;2022-10-14T12:52:06;98631.53;;;14.31;94.39
49297;BME280;35163;48.878;18.040;2022-10-14T12:54:35;98623.78;;;14.29;93.62
49297;BME280;35163;48.878;18.040;2022-10-14T12:59:50;98628.72;;;14.36;94.12
49297;BME280;35163;48.878;18.040;2022-10-14T13:02:31;98622.63;;;14.37;94.12
49297;BME280;35163;48.878;18.040;2022-10-14T13:05:04;98624.44;;;14.34;93.92
49297;BME280;35163;48.878;18.040;2022-10-14T13:10:41;98614.41;;;14.25;92.44
49297;BME280;35163;48.878;18.040;2022-10-14T13:16:05;98615.34;;;14.24;94.12
49297;BME280;35163;48.878;18.040;2022-10-14T13:21:02;98607.53;;;14.24;93.16
49297;BME280;35163;48.878;18.040;2022-10-14T13:23:51;98614.31;;;14.28;94.40
49297;BME280;35163;48.878;18.040;2022-10-14T13:26:24;98609.88;;;14.30;94.25
49297;BME280;35163;48.878;18.040;2022-10-14T13:37:31;98607.41;;;14.27;95.48
49297;BME280;35163;48.878;18.040;2022-10-14T13:40:21;98611.72;;;14.28;95.83
49297;BME280;35163;48.878;18.040;2022-10-14T13:42:53;98603.13;;;14.26;96.06
49297;BME280;35163;48.878;18.040;2022-10-14T13:45:29;98596.34;;;14.22;97.05
49297;BME280;35163;48.878;18.040;2022-10-14T13:47:57;98590.34;;;14.21;97.60
49297;BME280;35163;48.878;18.040;2022-10-14T13:50:30;98593.75;;;14.22;96.85
49297;BME280;35163;48.878;18.040;2022-10-14T13:53:00;98587.72;;;14.21;97.25
49297;BME280;35163;48.878;18.040;2022-10-14T13:55:28;98589.63;;;14.18;97.40
49297;BME280;35163;48.878;18.040;2022-10-14T13:58:00;98586.88;;;14.21;97.14
49297;BME280;35163;48.878;18.040;2022-10-14T14:00:44;98583.34;;;14.22;98.54
49297;BME280;35163;48.878;18.040;2022-10-14T14:03:16;98587.72;;;14.21;98.54
49297;BME280;35163;48.878;18.040;2022-10-14T14:05:45;98579.28;;;14.16;98.85
49297;BME280;35163;48.878;18.040;2022-10-14T14:08:21;98580.25;;;14.14;99.36
49297;BME280;35163;48.878;18.040;2022-10-14T14:11:07;98570.69;;;14.14;99.92
49297;BME280;35163;48.878;18.040;2022-10-14T14:14:05;98575.84;;;14.16;100.00
49297;BME280;35163;48.878;18.040;2022-10-14T14:16:35;98577.66;;;14.14;99.76
49297;BME280;35163;48.878;18.040;2022-10-14T14:19:03;98576.75;;;14.15;99.07
49297;BME280;35163;48.878;18.040;2022-10-14T14:21:36;98563.78;;;14.13;98.92
49297;BME280;35163;48.878;18.040;2022-10-14T14:24:14;98576.75;;;14.15;99.14
49297;BME280;35163;48.878;18.040;2022-10-14T14:26:41;98568.88;;;14.16;100.00
49297;BME280;35163;48.878;18.040;2022-10-14T14:29:19;98561.19;;;14.13;100.00
49297;BME280;35163;48.878;18.040;2022-10-14T14:31:46;98558.56;;;14.15;100.00
49297;BME280;35163;48.878;18.040;2022-10-14T14:34:33;98568.88;;;14.16;100.00
49297;BME280;35163;48.878;18.040;2022-10-14T14:37:01;98559.59;;;14.11;100.00
49297;BME280;35163;48.878;18.040;2022-10-14T14:39:59;98564.66;;;14.14;99.25
49297;BME280;35163;48.878;18.040;2022-10-14T14:42:30;98557.84;;;14.11;100.00
49297;BME280;35163;48.878;18.040;2022-10-14T14:45:02;98557.63;;;14.16;100.00
49297;BME280;35163;48.878;18.040;2022-10-14T14:47:30;98561.16;;;14.15;100.00
49297;BME280;35163;48.878;18.040;2022-10-14T14:49:57;98561.97;;;14.15;100.00
49297;BME280;35163;48.878;18.040;2022-10-14T14:52:46;98560.22;;;14.16;100.00
49297;BME280;35163;48.878;18.040;2022-10-14T14:55:33;98566.22;;;14.18;100.00
49297;BME280;35163;48.878;18.040;2022-10-14T14:58:00;98561.91;;;14.17;100.00
49297;BME280;35163;48.878;18.040;2022-10-14T15:00:28;98567.91;;;14.19;100.00
49297;BME280;35163;48.878;18.040;2022-10-14T15:03:00;98562.69;;;14.19;100.00